sensor_id;sensor_type;location;lat;lon;timestamp;temperature;humidity
578;DHT22;275;48.492;9.214;2023-02-15T00:01:50;5.70;38.30
578;DHT22;275;48.492;9.214;2023-02-15T00:04:19;5.80;37.90
578;DHT22;275;48.492;9.214;2023-02-15T00:06:46;5.70;37.90
578;DHT22;275;48.492;9.214;2023-02-15T00:09:13;5.90;37.20
578;DHT22;275;48.492;9.214;2023-02-15T00:11:40;5.90;37.00
578;DHT22;275;48.492;9.214;2023-02-15T00:14:11;6.10;36.70
578;DHT22;275;48.492;9.214;2023-02-15T00:16:39;6.10;36.70
578;DHT22;275;48.492;9.214;2023-02-15T00:19:06;5.90;37.10
578;DHT22;275;48.492;9.214;2023-02-15T00:21:34;5.80;37.60
578;DHT22;275;48.492;9.214;2023-02-15T00:24:03;5.50;38.10
578;DHT22;275;48.492;9.214;2023-02-15T00:26:30;5.50;38.40
578;DHT22;275;48.492;9.214;2023-02-15T00:28:58;5.50;38.50
578;DHT22;275;48.492;9.214;2023-02-15T00:31:27;5.50;38.50
578;DHT22;275;48.492;9.214;2023-02-15T00:33:56;5.30;38.80
578;DHT22;275;48.492;9.214;2023-02-15T00:36:27;5.20;39.10
578;DHT22;275;48.492;9.214;2023-02-15T00:38:53;5.10;39.10
578;DHT22;275;48.492;9.214;2023-02-15T00:41:20;4.90;39.70
578;DHT22;275;48.492;9.214;2023-02-15T00:43:47;4.90;39.80
578;DHT22;275;48.492;9.214;2023-02-15T00:46:14;5.20;38.90
578;DHT22;275;48.492;9.214;2023-02-15T00:48:42;5.30;38.80
578;DHT22;275;48.492;9.214;2023-02-15T00:51:09;5.40;38.90
578;DHT22;275;48.492;9.214;2023-02-15T00:53:35;5.40;38.50
578;DHT22;275;48.492;9.214;2023-02-15T00:56:02;5.50;37.80
578;DHT22;275;48.492;9.214;2023-02-15T00:58:29;5.50;38.20
578;DHT22;275;48.492;9.214;2023-02-15T01:01:03;5.40;38.20
578;DHT22;275;48.492;9.214;2023-02-15T01:03:30;5.50;38.30
578;DHT22;275;48.492;9.214;2023-02-15T01:05:59;5.60;37.60
578;DHT22;275;48.492;9.214;2023-02-15T01:08:26;5.60;37.20
578;DHT22;275;48.492;9.214;2023-02-15T01:10:52;5.40;38.00
578;DHT22;275;48.492;9.214;2023-02-15T01:13:19;5.30;38.30
578;DHT22;275;48.492;9.214;2023-02-15T01:15:53;5.30;38.60
578;DHT22;275;48.492;9.214;2023-02-15T01:18:21;5.30;38.70
578;DHT22;275;48.492;9.214;2023-02-15T01:20:48;5.10;38.90
578;DHT22;275;48.492;9.214;2023-02-15T01:23:16;5.20;38.80
578;DHT22;275;48.492;9.214;2023-02-15T01:25:43;5.10;38.70
578;DHT22;275;48.492;9.214;2023-02-15T01:28:10;5.20;38.80
578;DHT22;275;48.492;9.214;2023-02-15T01:30:37;5.20;38.70
578;DHT22;275;48.492;9.214;2023-02-15T01:33:04;5.10;39.10
578;DHT22;275;48.492;9.214;2023-02-15T01:35:31;5.00;39.00
578;DHT22;275;48.492;9.214;2023-02-15T01:37:57;4.80;38.80
578;DHT22;275;48.492;9.214;2023-02-15T01:40:26;4.90;38.80
578;DHT22;275;48.492;9.214;2023-02-15T01:42:53;5.10;38.20
578;DHT22;275;48.492;9.214;2023-02-15T01:45:24;5.00;38.00
578;DHT22;275;48.492;9.214;2023-02-15T01:47:56;5.10;37.80
578;DHT22;275;48.492;9.214;2023-02-15T01:50:28;5.00;38.00
578;DHT22;275;48.492;9.214;2023-02-15T01:53:01;4.80;38.10
578;DHT22;275;48.492;9.214;2023-02-15T01:55:32;4.70;38.50
578;DHT22;275;48.492;9.214;2023-02-15T01:58:00;4.70;38.30
578;DHT22;275;48.492;9.214;2023-02-15T02:00:27;4.60;38.30
578;DHT22;275;48.492;9.214;2023-02-15T02:02:55;4.80;38.00
578;DHT22;275;48.492;9.214;2023-02-15T02:05:23;4.80;37.90
578;DHT22;275;48.492;9.214;2023-02-15T02:07:52;4.80;38.10
578;DHT22;275;48.492;9.214;2023-02-15T02:10:21;4.30;39.60
578;DHT22;275;48.492;9.214;2023-02-15T02:12:52;4.20;39.60
578;DHT22;275;48.492;9.214;2023-02-15T02:15:25;4.40;39.20
578;DHT22;275;48.492;9.214;2023-02-15T02:18:03;4.30;39.00
578;DHT22;275;48.492;9.214;2023-02-15T02:20:59;4.20;39.90
578;DHT22;275;48.492;9.214;2023-02-15T02:23:35;4.20;39.60
578;DHT22;275;48.492;9.214;2023-02-15T02:26:42;4.30;39.10
578;DHT22;275;48.492;9.214;2023-02-15T02:29:44;4.50;38.90
578;DHT22;275;48.492;9.214;2023-02-15T02:33:15;4.60;38.70
578;DHT22;275;48.492;9.214;2023-02-15T02:35:51;4.60;38.20
578;DHT22;275;48.492;9.214;2023-02-15T02:38:26;4.80;37.80
578;DHT22;275;48.492;9.214;2023-02-15T02:41:03;4.70;38.00
578;DHT22;275;48.492;9.214;2023-02-15T02:43:37;4.60;38.00
578;DHT22;275;48.492;9.214;2023-02-15T02:46:10;4.60;38.00
578;DHT22;275;48.492;9.214;2023-02-15T02:48:42;4.50;38.40
578;DHT22;275;48.492;9.214;2023-02-15T02:51:08;4.50;38.60
578;DHT22;275;48.492;9.214;2023-02-15T02:53:35;4.50;38.30
578;DHT22;275;48.492;9.214;2023-02-15T02:56:06;4.50;38.20
578;DHT22;275;48.492;9.214;2023-02-15T02:58:39;4.50;38.50
578;DHT22;275;48.492;9.214;2023-02-15T03:01:12;4.50;38.30
578;DHT22;275;48.492;9.214;2023-02-15T03:03:44;4.40;38.10
578;DHT22;275;48.492;9.214;2023-02-15T03:06:13;4.40;38.10
578;DHT22;275;48.492;9.214;2023-02-15T03:08:45;4.50;37.90
578;DHT22;275;48.492;9.214;2023-02-15T03:11:13;4.60;37.60
578;DHT22;275;48.492;9.214;2023-02-15T03:13:40;4.60;37.60
578;DHT22;275;48.492;9.214;2023-02-15T03:16:09;4.50;37.80
578;DHT22;275;48.492;9.214;2023-02-15T03:18:59;4.30;38.10
578;DHT22;275;48.492;9.214;2023-02-15T03:21:33;4.30;37.90
578;DHT22;275;48.492;9.214;2023-02-15T03:24:04;4.40;38.00
578;DHT22;275;48.492;9.214;2023-02-15T03:26:34;4.30;37.90
578;DHT22;275;48.492;9.214;2023-02-15T03:29:04;4.10;38.40
578;DHT22;275;48.492;9.214;2023-02-15T03:31:33;4.00;38.50
578;DHT22;275;48.492;9.214;2023-02-15T03:34:04;4.00;38.30
578;DHT22;275;48.492;9.214;2023-02-15T03:36:38;4.10;38.60
578;DHT22;275;48.492;9.214;2023-02-15T03:39:10;3.90;38.10
578;DHT22;275;48.492;9.214;2023-02-15T03:41:42;3.60;38.90
578;DHT22;275;48.492;9.214;2023-02-15T03:44:15;3.80;38.60
578;DHT22;275;48.492;9.214;2023-02-15T03:46:46;4.00;37.80
578;DHT22;275;48.492;9.214;2023-02-15T03:49:19;3.90;38.10
578;DHT22;275;48.492;9.214;2023-02-15T03:51:49;4.00;37.60
578;DHT22;275;48.492;9.214;2023-02-15T03:54:19;4.20;36.90
578;DHT22;275;48.492;9.214;2023-02-15T03:57:01;4.20;36.80
578;DHT22;275;48.492;9.214;2023-02-15T03:59:42;3.50;38.50
578;DHT22;275;48.492;9.214;2023-02-15T04:02:29;3.30;39.00
578;DHT22;275;48.492;9.214;2023-02-15T04:05:02;3.50;38.50
578;DHT22;275;48.492;9.214;2023-02-15T04:07:28;3.80;37.80
578;DHT22;275;48.492;9.214;2023-02-15T04:09:55;3.90;37.30
578;DHT22;275;48.492;9.214;2023-02-15T04:12:39;4.10;37.10
578;DHT22;275;48.492;9.214;2023-02-15T04:15:07;4.20;36.60
578;DHT22;275;48.492;9.214;2023-02-15T04:17:52;4.00;36.50
578;DHT22;275;48.492;9.214;2023-02-15T04:20:20;3.80;36.50
578;DHT22;275;48.492;9.214;2023-02-15T04:23:05;3.60;36.90
578;DHT22;275;48.492;9.214;2023-02-15T04:25:50;3.40;37.40
578;DHT22;275;48.492;9.214;2023-02-15T04:28:16;2.80;39.40
578;DHT22;275;48.492;9.214;2023-02-15T04:30:43;2.90;39.70
578;DHT22;275;48.492;9.214;2023-02-15T04:33:10;3.00;39.80
578;DHT22;275;48.492;9.214;2023-02-15T04:35:38;3.20;39.50
578;DHT22;275;48.492;9.214;2023-02-15T04:38:05;3.00;40.50
578;DHT22;275;48.492;9.214;2023-02-15T04:40:32;3.10;40.30
578;DHT22;275;48.492;9.214;2023-02-15T04:42:59;3.40;40.00
578;DHT22;275;48.492;9.214;2023-02-15T04:45:25;3.40;39.70
578;DHT22;275;48.492;9.214;2023-02-15T04:47:52;3.20;40.20
578;DHT22;275;48.492;9.214;2023-02-15T04:50:19;3.20;39.80
578;DHT22;275;48.492;9.214;2023-02-15T04:52:47;3.30;39.60
578;DHT22;275;48.492;9.214;2023-02-15T04:55:14;3.40;39.30
578;DHT22;275;48.492;9.214;2023-02-15T04:57:41;3.60;39.20
578;DHT22;275;48.492;9.214;2023-02-15T05:00:08;3.60;39.00
578;DHT22;275;48.492;9.214;2023-02-15T05:02:35;3.40;39.40
578;DHT22;275;48.492;9.214;2023-02-15T05:05:03;3.20;39.80
578;DHT22;275;48.492;9.214;2023-02-15T05:07:30;3.10;40.60
578;DHT22;275;48.492;9.214;2023-02-15T05:09:58;3.20;40.10
578;DHT22;275;48.492;9.214;2023-02-15T05:12:25;3.50;39.70
578;DHT22;275;48.492;9.214;2023-02-15T05:14:52;3.60;38.80
578;DHT22;275;48.492;9.214;2023-02-15T05:17:18;3.70;39.10
578;DHT22;275;48.492;9.214;2023-02-15T05:19:45;3.90;38.10
578;DHT22;275;48.492;9.214;2023-02-15T05:22:12;4.00;38.00
578;DHT22;275;48.492;9.214;2023-02-15T05:24:39;4.00;38.30
578;DHT22;275;48.492;9.214;2023-02-15T05:27:25;4.20;37.70
578;DHT22;275;48.492;9.214;2023-02-15T05:30:10;4.10;37.90
578;DHT22;275;48.492;9.214;2023-02-15T05:32:37;3.90;38.10
578;DHT22;275;48.492;9.214;2023-02-15T05:35:04;4.10;36.80
578;DHT22;275;48.492;9.214;2023-02-15T05:37:31;4.10;36.80
578;DHT22;275;48.492;9.214;2023-02-15T05:39:58;3.90;36.80
578;DHT22;275;48.492;9.214;2023-02-15T05:42:26;3.60;37.90
578;DHT22;275;48.492;9.214;2023-02-15T05:44:53;3.50;38.20
578;DHT22;275;48.492;9.214;2023-02-15T05:47:20;3.50;38.60
578;DHT22;275;48.492;9.214;2023-02-15T05:49:46;3.70;37.90
578;DHT22;275;48.492;9.214;2023-02-15T05:52:13;3.30;38.80
578;DHT22;275;48.492;9.214;2023-02-15T05:54:40;3.20;39.10
578;DHT22;275;48.492;9.214;2023-02-15T05:57:07;3.40;38.70
578;DHT22;275;48.492;9.214;2023-02-15T05:59:35;3.40;38.50
578;DHT22;275;48.492;9.214;2023-02-15T06:02:02;3.40;39.20
578;DHT22;275;48.492;9.214;2023-02-15T06:04:29;3.30;39.50
578;DHT22;275;48.492;9.214;2023-02-15T06:06:55;2.80;41.40
578;DHT22;275;48.492;9.214;2023-02-15T06:09:22;2.70;41.90
578;DHT22;275;48.492;9.214;2023-02-15T06:11:49;2.70;41.80
578;DHT22;275;48.492;9.214;2023-02-15T06:14:16;3.00;40.60
578;DHT22;275;48.492;9.214;2023-02-15T06:16:44;3.40;39.20
578;DHT22;275;48.492;9.214;2023-02-15T06:19:11;3.50;39.00
578;DHT22;275;48.492;9.214;2023-02-15T06:21:38;3.60;38.60
578;DHT22;275;48.492;9.214;2023-02-15T06:24:05;3.40;39.20
578;DHT22;275;48.492;9.214;2023-02-15T06:26:32;3.60;38.90
578;DHT22;275;48.492;9.214;2023-02-15T06:28:59;3.40;39.20
578;DHT22;275;48.492;9.214;2023-02-15T06:31:25;3.20;39.60
578;DHT22;275;48.492;9.214;2023-02-15T06:33:54;3.40;38.90
578;DHT22;275;48.492;9.214;2023-02-15T06:36:26;3.40;38.80
578;DHT22;275;48.492;9.214;2023-02-15T06:38:53;3.50;38.80
578;DHT22;275;48.492;9.214;2023-02-15T06:41:20;3.60;38.60
578;DHT22;275;48.492;9.214;2023-02-15T06:43:46;3.60;38.50
578;DHT22;275;48.492;9.214;2023-02-15T06:46:13;3.60;38.10
578;DHT22;275;48.492;9.214;2023-02-15T06:48:40;3.70;38.30
578;DHT22;275;48.492;9.214;2023-02-15T06:51:08;3.70;38.10
578;DHT22;275;48.492;9.214;2023-02-15T06:53:35;3.60;38.40
578;DHT22;275;48.492;9.214;2023-02-15T06:56:02;3.40;38.50
578;DHT22;275;48.492;9.214;2023-02-15T06:58:31;3.40;38.30
578;DHT22;275;48.492;9.214;2023-02-15T07:00:58;3.20;38.20
578;DHT22;275;48.492;9.214;2023-02-15T07:03:25;2.80;39.40
578;DHT22;275;48.492;9.214;2023-02-15T07:05:54;2.80;39.70
578;DHT22;275;48.492;9.214;2023-02-15T07:08:22;2.90;40.10
578;DHT22;275;48.492;9.214;2023-02-15T07:10:50;3.10;39.70
578;DHT22;275;48.492;9.214;2023-02-15T07:13:17;3.40;38.70
578;DHT22;275;48.492;9.214;2023-02-15T07:15:43;3.70;38.10
578;DHT22;275;48.492;9.214;2023-02-15T07:18:10;4.00;37.30
578;DHT22;275;48.492;9.214;2023-02-15T07:20:37;4.00;36.70
578;DHT22;275;48.492;9.214;2023-02-15T07:23:07;3.90;37.00
578;DHT22;275;48.492;9.214;2023-02-15T07:25:36;4.00;36.60
578;DHT22;275;48.492;9.214;2023-02-15T07:28:04;4.10;36.40
578;DHT22;275;48.492;9.214;2023-02-15T07:30:31;4.20;36.10
578;DHT22;275;48.492;9.214;2023-02-15T07:32:58;4.30;36.00
578;DHT22;275;48.492;9.214;2023-02-15T07:35:47;4.50;35.60
578;DHT22;275;48.492;9.214;2023-02-15T07:38:14;4.80;35.10
578;DHT22;275;48.492;9.214;2023-02-15T07:40:42;4.80;34.80
578;DHT22;275;48.492;9.214;2023-02-15T07:43:09;4.70;35.30
578;DHT22;275;48.492;9.214;2023-02-15T07:45:36;4.70;35.70
578;DHT22;275;48.492;9.214;2023-02-15T07:48:04;4.70;35.50
578;DHT22;275;48.492;9.214;2023-02-15T07:50:32;4.80;35.60
578;DHT22;275;48.492;9.214;2023-02-15T07:53:00;4.80;35.40
578;DHT22;275;48.492;9.214;2023-02-15T07:55:27;5.00;35.40
578;DHT22;275;48.492;9.214;2023-02-15T07:57:56;4.70;35.90
578;DHT22;275;48.492;9.214;2023-02-15T08:00:23;4.60;35.90
578;DHT22;275;48.492;9.214;2023-02-15T08:02:51;4.50;36.50
578;DHT22;275;48.492;9.214;2023-02-15T08:05:38;4.40;36.60
578;DHT22;275;48.492;9.214;2023-02-15T08:08:06;5.00;35.40
578;DHT22;275;48.492;9.214;2023-02-15T08:10:33;5.10;35.00
578;DHT22;275;48.492;9.214;2023-02-15T08:13:21;5.10;35.20
578;DHT22;275;48.492;9.214;2023-02-15T08:15:48;5.30;34.70
578;DHT22;275;48.492;9.214;2023-02-15T08:18:15;5.60;34.60
578;DHT22;275;48.492;9.214;2023-02-15T08:20:42;5.70;34.90
578;DHT22;275;48.492;9.214;2023-02-15T08:23:09;5.80;33.70
578;DHT22;275;48.492;9.214;2023-02-15T08:25:36;5.60;34.40
578;DHT22;275;48.492;9.214;2023-02-15T08:28:03;5.90;33.30
578;DHT22;275;48.492;9.214;2023-02-15T08:30:31;6.00;32.20
578;DHT22;275;48.492;9.214;2023-02-15T08:32:58;5.90;33.10
578;DHT22;275;48.492;9.214;2023-02-15T08:35:24;5.90;33.20
578;DHT22;275;48.492;9.214;2023-02-15T08:37:51;6.00;33.40
578;DHT22;275;48.492;9.214;2023-02-15T08:40:19;6.10;33.00
578;DHT22;275;48.492;9.214;2023-02-15T08:42:46;5.90;33.40
578;DHT22;275;48.492;9.214;2023-02-15T08:45:12;5.90;33.40
578;DHT22;275;48.492;9.214;2023-02-15T08:47:40;5.90;33.60
578;DHT22;275;48.492;9.214;2023-02-15T08:50:08;5.90;33.40
578;DHT22;275;48.492;9.214;2023-02-15T08:52:36;5.90;33.60
578;DHT22;275;48.492;9.214;2023-02-15T08:55:04;6.00;33.60
578;DHT22;275;48.492;9.214;2023-02-15T08:57:30;5.90;33.80
578;DHT22;275;48.492;9.214;2023-02-15T08:59:57;6.30;32.60
578;DHT22;275;48.492;9.214;2023-02-15T09:02:24;6.60;31.90
578;DHT22;275;48.492;9.214;2023-02-15T09:04:52;6.50;30.90
578;DHT22;275;48.492;9.214;2023-02-15T09:07:19;6.60;30.70
578;DHT22;275;48.492;9.214;2023-02-15T09:09:46;6.70;30.70
578;DHT22;275;48.492;9.214;2023-02-15T09:12:13;6.80;30.80
578;DHT22;275;48.492;9.214;2023-02-15T09:14:39;6.50;31.40
578;DHT22;275;48.492;9.214;2023-02-15T09:17:06;6.60;31.60
578;DHT22;275;48.492;9.214;2023-02-15T09:19:33;6.70;31.50
578;DHT22;275;48.492;9.214;2023-02-15T09:22:01;6.90;31.40
578;DHT22;275;48.492;9.214;2023-02-15T09:24:32;7.10;31.70
578;DHT22;275;48.492;9.214;2023-02-15T09:26:58;7.20;31.00
578;DHT22;275;48.492;9.214;2023-02-15T09:29:25;6.90;31.60
578;DHT22;275;48.492;9.214;2023-02-15T09:31:52;7.00;31.50
578;DHT22;275;48.492;9.214;2023-02-15T09:34:21;6.90;31.60
578;DHT22;275;48.492;9.214;2023-02-15T09:36:48;6.70;32.40
578;DHT22;275;48.492;9.214;2023-02-15T09:39:20;7.20;31.30
578;DHT22;275;48.492;9.214;2023-02-15T09:42:19;7.40;30.80
578;DHT22;275;48.492;9.214;2023-02-15T09:50:56;7.80;29.90
578;DHT22;275;48.492;9.214;2023-02-15T09:53:36;8.00;29.50
578;DHT22;275;48.492;9.214;2023-02-15T09:56:12;7.90;29.80
578;DHT22;275;48.492;9.214;2023-02-15T09:58:46;8.00;29.50
578;DHT22;275;48.492;9.214;2023-02-15T10:01:24;8.00;29.60
578;DHT22;275;48.492;9.214;2023-02-15T10:04:12;8.00;29.50
578;DHT22;275;48.492;9.214;2023-02-15T10:06:43;8.00;29.40
578;DHT22;275;48.492;9.214;2023-02-15T10:09:25;7.80;29.80
578;DHT22;275;48.492;9.214;2023-02-15T10:12:10;7.90;29.70
578;DHT22;275;48.492;9.214;2023-02-15T10:14:53;8.10;29.30
578;DHT22;275;48.492;9.214;2023-02-15T10:17:31;8.30;29.10
578;DHT22;275;48.492;9.214;2023-02-15T10:20:12;8.40;28.90
578;DHT22;275;48.492;9.214;2023-02-15T10:22:56;8.70;28.60
578;DHT22;275;48.492;9.214;2023-02-15T10:25:31;9.10;28.00
578;DHT22;275;48.492;9.214;2023-02-15T10:28:04;9.20;28.00
578;DHT22;275;48.492;9.214;2023-02-15T10:30:37;9.50;27.50
578;DHT22;275;48.492;9.214;2023-02-15T10:33:13;9.70;27.10
578;DHT22;275;48.492;9.214;2023-02-15T10:35:47;9.80;26.90
578;DHT22;275;48.492;9.214;2023-02-15T10:38:23;9.70;27.20
578;DHT22;275;48.492;9.214;2023-02-15T10:41:01;9.80;27.00
578;DHT22;275;48.492;9.214;2023-02-15T10:43:45;9.90;27.00
578;DHT22;275;48.492;9.214;2023-02-15T10:46:24;10.10;26.00
578;DHT22;275;48.492;9.214;2023-02-15T10:49:11;10.40;25.60
578;DHT22;275;48.492;9.214;2023-02-15T10:51:51;10.80;25.10
578;DHT22;275;48.492;9.214;2023-02-15T10:54:28;11.20;24.50
578;DHT22;275;48.492;9.214;2023-02-15T10:57:05;11.00;24.70
578;DHT22;275;48.492;9.214;2023-02-15T10:59:49;11.10;24.50
578;DHT22;275;48.492;9.214;2023-02-15T11:02:23;11.30;24.60
578;DHT22;275;48.492;9.214;2023-02-15T11:04:56;11.80;23.90
578;DHT22;275;48.492;9.214;2023-02-15T11:07:31;12.00;23.80
578;DHT22;275;48.492;9.214;2023-02-15T11:10:12;12.10;23.70
578;DHT22;275;48.492;9.214;2023-02-15T11:12:41;12.50;23.60
578;DHT22;275;48.492;9.214;2023-02-15T11:15:18;13.60;22.30
578;DHT22;275;48.492;9.214;2023-02-15T11:17:50;14.30;21.10
578;DHT22;275;48.492;9.214;2023-02-15T11:20:22;14.10;21.50
578;DHT22;275;48.492;9.214;2023-02-15T11:22:52;14.10;21.20
578;DHT22;275;48.492;9.214;2023-02-15T11:25:24;14.10;21.30
578;DHT22;275;48.492;9.214;2023-02-15T11:27:52;13.90;21.30
578;DHT22;275;48.492;9.214;2023-02-15T11:30:23;13.80;21.30
578;DHT22;275;48.492;9.214;2023-02-15T11:32:52;13.50;21.90
578;DHT22;275;48.492;9.214;2023-02-15T11:35:24;13.50;22.20
578;DHT22;275;48.492;9.214;2023-02-15T11:37:57;13.20;22.20
578;DHT22;275;48.492;9.214;2023-02-15T11:40:28;12.80;22.60
578;DHT22;275;48.492;9.214;2023-02-15T11:42:58;12.90;22.40
578;DHT22;275;48.492;9.214;2023-02-15T11:45:29;13.20;21.90
578;DHT22;275;48.492;9.214;2023-02-15T11:47:57;13.30;22.10
578;DHT22;275;48.492;9.214;2023-02-15T11:50:27;13.20;22.10
578;DHT22;275;48.492;9.214;2023-02-15T11:52:57;13.30;22.10
578;DHT22;275;48.492;9.214;2023-02-15T11:55:25;13.10;21.90
578;DHT22;275;48.492;9.214;2023-02-15T11:57:56;12.80;22.50
578;DHT22;275;48.492;9.214;2023-02-15T12:00:33;13.10;22.00
578;DHT22;275;48.492;9.214;2023-02-15T12:03:07;13.40;20.60
578;DHT22;275;48.492;9.214;2023-02-15T12:05:37;13.40;20.60
578;DHT22;275;48.492;9.214;2023-02-15T12:08:14;13.60;20.80
578;DHT22;275;48.492;9.214;2023-02-15T12:10:51;13.40;21.20
578;DHT22;275;48.492;9.214;2023-02-15T12:13:22;13.40;21.30
578;DHT22;275;48.492;9.214;2023-02-15T12:15:52;13.60;21.00
578;DHT22;275;48.492;9.214;2023-02-15T12:18:30;13.80;20.30
578;DHT22;275;48.492;9.214;2023-02-15T12:21:02;13.90;20.20
578;DHT22;275;48.492;9.214;2023-02-15T12:23:34;14.00;20.10
578;DHT22;275;48.492;9.214;2023-02-15T12:26:02;13.90;20.40
578;DHT22;275;48.492;9.214;2023-02-15T12:28:32;14.10;20.30
578;DHT22;275;48.492;9.214;2023-02-15T12:31:02;14.20;19.80
578;DHT22;275;48.492;9.214;2023-02-15T12:33:32;14.10;19.70
578;DHT22;275;48.492;9.214;2023-02-15T12:36:03;14.20;19.80
578;DHT22;275;48.492;9.214;2023-02-15T12:38:31;14.20;20.10
578;DHT22;275;48.492;9.214;2023-02-15T12:41:00;14.40;19.70
578;DHT22;275;48.492;9.214;2023-02-15T12:43:31;14.40;19.80
578;DHT22;275;48.492;9.214;2023-02-15T12:49:10;14.00;20.30
578;DHT22;275;48.492;9.214;2023-02-15T12:51:47;19.20;15.60
578;DHT22;275;48.492;9.214;2023-02-15T12:54:39;22.80;13.90
578;DHT22;275;48.492;9.214;2023-02-15T12:57:15;26.00;10.50
578;DHT22;275;48.492;9.214;2023-02-15T12:59:49;26.60;9.40
578;DHT22;275;48.492;9.214;2023-02-15T13:02:21;29.10;7.40
578;DHT22;275;48.492;9.214;2023-02-15T13:04:50;29.80;7.10
578;DHT22;275;48.492;9.214;2023-02-15T13:07:17;31.20;5.40
578;DHT22;275;48.492;9.214;2023-02-15T13:09:44;30.70;5.40
578;DHT22;275;48.492;9.214;2023-02-15T13:12:17;29.30;5.70
578;DHT22;275;48.492;9.214;2023-02-15T13:14:45;28.80;5.90
578;DHT22;275;48.492;9.214;2023-02-15T13:17:16;27.80;5.80
578;DHT22;275;48.492;9.214;2023-02-15T13:19:46;26.30;7.30
578;DHT22;275;48.492;9.214;2023-02-15T13:22:19;26.90;6.80
578;DHT22;275;48.492;9.214;2023-02-15T13:24:48;26.90;5.80
578;DHT22;275;48.492;9.214;2023-02-15T13:27:19;27.30;5.40
578;DHT22;275;48.492;9.214;2023-02-15T13:29:49;27.50;5.30
578;DHT22;275;48.492;9.214;2023-02-15T13:32:25;29.60;3.60
578;DHT22;275;48.492;9.214;2023-02-15T13:34:56;31.30;2.30
578;DHT22;275;48.492;9.214;2023-02-15T13:37:42;30.80;2.30
578;DHT22;275;48.492;9.214;2023-02-15T13:40:15;30.60;2.00
578;DHT22;275;48.492;9.214;2023-02-15T13:42:48;29.60;3.00
578;DHT22;275;48.492;9.214;2023-02-15T13:45:30;29.50;3.20
578;DHT22;275;48.492;9.214;2023-02-15T13:48:03;28.70;4.50
578;DHT22;275;48.492;9.214;2023-02-15T13:50:50;27.70;5.40
578;DHT22;275;48.492;9.214;2023-02-15T13:53:31;26.90;6.40
578;DHT22;275;48.492;9.214;2023-02-15T13:56:02;25.80;7.40
578;DHT22;275;48.492;9.214;2023-02-15T14:01:40;25.90;7.10
578;DHT22;275;48.492;9.214;2023-02-15T14:04:46;25.50;7.70
578;DHT22;275;48.492;9.214;2023-02-15T14:07:39;24.90;7.90
578;DHT22;275;48.492;9.214;2023-02-15T14:10:24;23.80;9.00
578;DHT22;275;48.492;9.214;2023-02-15T14:13:12;24.50;8.60
578;DHT22;275;48.492;9.214;2023-02-15T14:15:49;24.80;8.70
578;DHT22;275;48.492;9.214;2023-02-15T14:18:22;24.20;8.70
578;DHT22;275;48.492;9.214;2023-02-15T14:21:01;23.00;9.80
578;DHT22;275;48.492;9.214;2023-02-15T14:23:49;23.90;9.20
578;DHT22;275;48.492;9.214;2023-02-15T14:26:26;23.20;9.90
578;DHT22;275;48.492;9.214;2023-02-15T14:29:07;25.00;8.20
578;DHT22;275;48.492;9.214;2023-02-15T14:31:42;25.10;8.20
578;DHT22;275;48.492;9.214;2023-02-15T14:34:19;22.70;9.70
578;DHT22;275;48.492;9.214;2023-02-15T14:36:48;22.00;10.10
578;DHT22;275;48.492;9.214;2023-02-15T14:39:25;21.50;10.80
578;DHT22;275;48.492;9.214;2023-02-15T14:42:18;21.50;10.60
578;DHT22;275;48.492;9.214;2023-02-15T14:44:51;20.60;11.50
578;DHT22;275;48.492;9.214;2023-02-15T14:47:24;21.00;10.90
578;DHT22;275;48.492;9.214;2023-02-15T14:49:52;19.40;12.00
578;DHT22;275;48.492;9.214;2023-02-15T14:52:19;18.40;12.80
578;DHT22;275;48.492;9.214;2023-02-15T14:54:59;17.60;14.20
578;DHT22;275;48.492;9.214;2023-02-15T14:57:36;16.60;14.90
578;DHT22;275;48.492;9.214;2023-02-15T15:00:35;16.20;15.10
578;DHT22;275;48.492;9.214;2023-02-15T15:03:11;16.40;14.90
578;DHT22;275;48.492;9.214;2023-02-15T15:05:48;16.10;15.20
578;DHT22;275;48.492;9.214;2023-02-15T15:08:25;15.90;14.60
578;DHT22;275;48.492;9.214;2023-02-15T15:10:52;15.70;13.60
578;DHT22;275;48.492;9.214;2023-02-15T15:13:38;15.30;13.90
578;DHT22;275;48.492;9.214;2023-02-15T15:16:29;15.50;13.40
578;DHT22;275;48.492;9.214;2023-02-15T15:18:57;15.20;13.70
578;DHT22;275;48.492;9.214;2023-02-15T15:21:53;15.60;13.20
578;DHT22;275;48.492;9.214;2023-02-15T15:24:48;15.10;13.70
578;DHT22;275;48.492;9.214;2023-02-15T15:27:42;14.80;14.30
578;DHT22;275;48.492;9.214;2023-02-15T15:30:49;15.10;13.60
578;DHT22;275;48.492;9.214;2023-02-15T15:40:07;15.50;13.00
578;DHT22;275;48.492;9.214;2023-02-15T15:42:50;15.80;12.70
578;DHT22;275;48.492;9.214;2023-02-15T15:48:31;15.80;12.90
578;DHT22;275;48.492;9.214;2023-02-15T15:51:02;15.70;13.10
578;DHT22;275;48.492;9.214;2023-02-15T15:53:37;15.60;13.30
578;DHT22;275;48.492;9.214;2023-02-15T15:56:10;15.30;13.40
578;DHT22;275;48.492;9.214;2023-02-15T15:58:42;15.10;14.00
578;DHT22;275;48.492;9.214;2023-02-15T16:01:11;15.00;14.40
578;DHT22;275;48.492;9.214;2023-02-15T16:03:49;15.10;14.60
578;DHT22;275;48.492;9.214;2023-02-15T16:06:27;15.30;14.40
578;DHT22;275;48.492;9.214;2023-02-15T16:08:55;15.20;14.80
578;DHT22;275;48.492;9.214;2023-02-15T16:11:24;15.30;15.00
578;DHT22;275;48.492;9.214;2023-02-15T16:13:52;15.60;14.50
578;DHT22;275;48.492;9.214;2023-02-15T16:16:23;15.30;15.10
578;DHT22;275;48.492;9.214;2023-02-15T16:18:55;15.20;15.30
578;DHT22;275;48.492;9.214;2023-02-15T16:21:27;15.10;15.70
578;DHT22;275;48.492;9.214;2023-02-15T16:29:56;15.50;16.40
578;DHT22;275;48.492;9.214;2023-02-15T16:32:25;15.50;16.40
578;DHT22;275;48.492;9.214;2023-02-15T16:34:56;15.50;16.50
578;DHT22;275;48.492;9.214;2023-02-15T16:37:24;15.60;16.50
578;DHT22;275;48.492;9.214;2023-02-15T16:39:53;15.60;16.50
578;DHT22;275;48.492;9.214;2023-02-15T16:42:21;15.40;16.70
578;DHT22;275;48.492;9.214;2023-02-15T16:44:51;15.20;17.00
578;DHT22;275;48.492;9.214;2023-02-15T16:47:20;14.90;17.30
578;DHT22;275;48.492;9.214;2023-02-15T16:49:50;15.00;17.20
578;DHT22;275;48.492;9.214;2023-02-15T16:52:23;15.10;17.00
578;DHT22;275;48.492;9.214;2023-02-15T16:54:54;15.00;17.00
578;DHT22;275;48.492;9.214;2023-02-15T16:57:24;15.00;17.20
578;DHT22;275;48.492;9.214;2023-02-15T16:59:54;14.40;17.80
578;DHT22;275;48.492;9.214;2023-02-15T17:02:25;13.60;19.10
578;DHT22;275;48.492;9.214;2023-02-15T17:05:08;13.20;19.90
578;DHT22;275;48.492;9.214;2023-02-15T17:07:49;12.50;21.30
578;DHT22;275;48.492;9.214;2023-02-15T17:10:28;12.60;21.10
578;DHT22;275;48.492;9.214;2023-02-15T17:12:56;12.60;21.40
578;DHT22;275;48.492;9.214;2023-02-15T17:15:29;12.80;20.90
578;DHT22;275;48.492;9.214;2023-02-15T17:17:58;12.80;21.00
578;DHT22;275;48.492;9.214;2023-02-15T17:20:27;12.90;20.80
578;DHT22;275;48.492;9.214;2023-02-15T17:22:56;12.90;20.80
578;DHT22;275;48.492;9.214;2023-02-15T17:25:30;12.70;21.00
578;DHT22;275;48.492;9.214;2023-02-15T17:27:59;12.30;21.40
578;DHT22;275;48.492;9.214;2023-02-15T17:30:28;12.40;21.20
578;DHT22;275;48.492;9.214;2023-02-15T17:32:58;12.40;21.20
578;DHT22;275;48.492;9.214;2023-02-15T17:35:27;11.90;21.70
578;DHT22;275;48.492;9.214;2023-02-15T17:38:03;11.60;22.40
578;DHT22;275;48.492;9.214;2023-02-15T17:40:32;11.40;22.90
578;DHT22;275;48.492;9.214;2023-02-15T17:42:59;11.60;22.60
578;DHT22;275;48.492;9.214;2023-02-15T17:45:30;11.70;22.50
578;DHT22;275;48.492;9.214;2023-02-15T17:47:58;11.60;22.40